createdAt,value
2018-11-02T00:02:21.456Z,6.90
2018-11-02T00:04:56.870Z,5.47
2018-11-02T00:07:32.426Z,6.27
2018-11-02T00:10:08.181Z,4.10
2018-11-02T00:12:43.777Z,3.10
2018-11-02T00:15:19.404Z,3.20
2018-11-02T00:17:55.095Z,5.47
2018-11-02T00:20:30.842Z,3.97
2018-11-02T00:23:06.293Z,4.63
2018-11-02T00:25:42.318Z,8.73
2018-11-02T00:28:17.513Z,3.07
2018-11-02T00:30:53.419Z,4.80
2018-11-02T00:33:28.980Z,3.03
2018-11-02T00:36:04.390Z,4.97
2018-11-02T00:38:40.261Z,3.60
2018-11-02T00:41:15.616Z,3.83
2018-11-02T00:43:51.343Z,2.77
2018-11-02T00:46:27.244Z,2.70
2018-11-02T00:49:03.385Z,3.33
2018-11-02T00:51:39.377Z,7.30
2018-11-02T00:54:15.482Z,3.03
2018-11-02T00:56:51.753Z,3.47
2018-11-02T00:59:27.438Z,4.50
2018-11-02T01:02:03.000Z,17.33
2018-11-02T01:04:38.677Z,3.23
2018-11-02T01:07:14.461Z,2.60
2018-11-02T01:09:50.345Z,2.70
2018-11-02T01:12:25.993Z,4.67
2018-11-02T01:15:01.860Z,3.97
2018-11-02T01:17:37.548Z,9.83
2018-11-02T01:20:13.020Z,3.60
2018-11-02T01:22:48.695Z,3.37
2018-11-02T01:25:24.635Z,3.40
2018-11-02T01:28:00.141Z,3.10
2018-11-02T01:30:35.841Z,3.77
2018-11-02T01:33:11.741Z,3.80
2018-11-02T01:35:47.225Z,7.77
2018-11-02T01:38:22.565Z,2.77
2018-11-02T01:40:58.599Z,3.33
2018-11-02T01:43:34.204Z,3.73
2018-11-02T01:46:09.446Z,2.83
2018-11-02T01:48:45.244Z,6.07
2018-11-02T01:51:20.801Z,2.70
2018-11-02T01:54:02.825Z,3.40
2018-11-02T01:56:37.893Z,3.87
2018-11-02T01:59:13.457Z,7.93
2018-11-02T02:01:49.331Z,2.70
2018-11-02T02:04:24.897Z,5.00
2018-11-02T02:07:00.591Z,2.73
2018-11-02T02:09:36.379Z,2.73
2018-11-02T02:12:12.256Z,2.83
2018-11-02T02:14:47.933Z,3.93
2018-11-02T02:17:23.394Z,2.87
2018-11-02T02:19:59.172Z,2.57
2018-11-02T02:22:34.742Z,3.53
2018-11-02T02:25:10.261Z,2.87
2018-11-02T02:27:46.154Z,3.33
2018-11-02T02:30:22.077Z,3.57
2018-11-02T02:32:57.580Z,4.63
2018-11-02T02:35:32.945Z,3.10
2018-11-02T02:38:08.599Z,3.83
2018-11-02T02:40:44.586Z,7.90
2018-11-02T02:43:20.135Z,11.57
2018-11-02T02:45:55.739Z,5.60
2018-11-02T02:48:31.556Z,3.20
2018-11-02T02:51:07.480Z,5.37
2018-11-02T02:53:42.871Z,5.13
2018-11-02T02:56:18.556Z,2.57
2018-11-02T02:58:54.615Z,3.20
2018-11-02T03:01:29.785Z,5.57
2018-11-02T03:04:05.359Z,6.90
2018-11-02T03:06:41.239Z,4.60
2018-11-02T03:09:16.697Z,4.30
2018-11-02T03:11:52.603Z,3.70
2018-11-02T03:14:28.049Z,6.90
2018-11-02T03:17:03.682Z,4.83
2018-11-02T03:19:39.189Z,3.37
2018-11-02T03:22:15.045Z,4.87
2018-11-02T03:24:50.487Z,4.33
2018-11-02T03:27:26.115Z,4.17
2018-11-02T03:30:02.030Z,4.23
2018-11-02T03:32:37.814Z,10.27
2018-11-02T03:35:13.515Z,4.20
2018-11-02T03:37:49.342Z,5.90
2018-11-02T03:40:24.992Z,3.50
2018-11-02T03:43:01.466Z,4.20
2018-11-02T03:45:37.208Z,3.67
2018-11-02T03:48:12.910Z,5.13
2018-11-02T03:50:48.589Z,2.53
2018-11-02T03:53:24.371Z,3.10
2018-11-02T03:56:00.099Z,6.50
2018-11-02T03:58:35.773Z,2.90
2018-11-02T04:01:11.228Z,4.33
2018-11-02T04:03:47.628Z,4.63
2018-11-02T04:06:24.032Z,2.33
2018-11-02T04:08:59.369Z,2.30
2018-11-02T04:11:35.059Z,3.43
2018-11-02T04:14:11.511Z,2.40
2018-11-02T04:16:47.533Z,3.33
2018-11-02T04:19:22.788Z,2.43
2018-11-02T04:21:58.614Z,3.90
2018-11-02T04:24:34.258Z,2.13
2018-11-02T04:27:09.928Z,2.87
2018-11-02T04:29:45.554Z,2.60
2018-11-02T04:32:21.267Z,2.43
2018-11-02T04:34:56.831Z,4.07
2018-11-02T04:37:32.766Z,3.47
2018-11-02T04:40:08.260Z,3.17
2018-11-02T04:42:43.353Z,3.00
2018-11-02T04:45:24.200Z,3.57
2018-11-02T04:47:59.692Z,4.20
2018-11-02T04:50:35.668Z,3.07
2018-11-02T04:53:11.414Z,5.37
2018-11-02T04:55:46.995Z,3.87
2018-11-02T04:58:22.623Z,3.70
2018-11-02T05:00:58.312Z,4.63
2018-11-02T05:03:34.161Z,4.53
2018-11-02T05:06:09.769Z,4.00
2018-11-02T05:08:45.666Z,3.70
2018-11-02T05:11:21.738Z,3.20
2018-11-02T05:13:57.406Z,8.00
2018-11-02T05:16:33.193Z,4.57
2018-11-02T05:19:08.697Z,2.60
2018-11-02T05:21:44.550Z,2.43
2018-11-02T05:24:20.409Z,4.73
2018-11-02T05:26:56.028Z,4.13
2018-11-02T05:29:31.761Z,2.77
2018-11-02T05:32:07.925Z,2.67
2018-11-02T05:34:43.981Z,2.63
2018-11-02T05:37:19.616Z,2.63
2018-11-02T05:39:55.272Z,5.83
2018-11-02T05:42:31.106Z,2.57
2018-11-02T05:45:07.109Z,2.43
2018-11-02T05:47:43.441Z,7.60
2018-11-02T05:50:19.109Z,5.40
2018-11-02T05:52:55.760Z,2.90
2018-11-02T05:55:31.711Z,2.53
2018-11-02T05:58:07.950Z,3.77
2018-11-02T06:00:43.735Z,7.33
2018-11-02T06:03:19.400Z,8.10
2018-11-02T06:05:55.137Z,2.93
2018-11-02T06:08:31.041Z,2.83
2018-11-02T06:11:07.453Z,6.10
2018-11-02T06:13:43.444Z,4.50
2018-11-02T06:16:18.838Z,5.13
2018-11-02T06:18:54.557Z,3.43
2018-11-02T06:21:30.157Z,6.30
2018-11-02T06:24:05.657Z,5.40
2018-11-02T06:26:41.723Z,3.97
2018-11-02T06:29:17.139Z,7.00
2018-11-02T06:31:52.687Z,9.47
2018-11-02T06:34:28.253Z,6.13
2018-11-02T06:37:04.060Z,5.80
2018-11-02T06:39:39.774Z,3.60
2018-11-02T06:42:15.088Z,5.27
2018-11-02T06:44:50.723Z,5.00
2018-11-02T06:47:26.356Z,4.10
2018-11-02T06:50:02.021Z,4.70
2018-11-02T06:52:37.996Z,3.60
2018-11-02T06:55:13.636Z,3.07
2018-11-02T06:57:48.996Z,6.80
2018-11-02T07:00:24.888Z,7.83
2018-11-02T07:03:06.360Z,13.63
2018-11-02T07:05:42.777Z,6.90
2018-11-02T07:08:18.778Z,2.87
2018-11-02T07:10:54.309Z,2.90
2018-11-02T07:13:30.631Z,3.60
2018-11-02T07:16:06.924Z,4.93
2018-11-02T07:18:42.341Z,4.90
2018-11-02T07:21:18.112Z,3.10
2018-11-02T07:23:53.382Z,4.47
2018-11-02T07:26:29.388Z,3.20
2018-11-02T07:29:04.812Z,2.80
2018-11-02T07:31:40.549Z,4.00
2018-11-02T07:34:16.265Z,4.87
2018-11-02T07:36:51.501Z,4.00
2018-11-02T07:39:32.018Z,4.70
2018-11-02T07:42:09.020Z,8.33
2018-11-02T07:44:45.219Z,10.33
2018-11-02T07:47:20.608Z,3.03
2018-11-02T07:49:56.138Z,3.63
2018-11-02T07:52:31.542Z,19.07
2018-11-02T07:55:10.025Z,3.03
2018-11-02T07:57:46.010Z,3.47
2018-11-02T08:00:21.570Z,2.93
2018-11-02T08:02:57.323Z,4.53
2018-11-02T08:05:33.240Z,3.07
2018-11-02T08:08:08.990Z,4.13
2018-11-02T08:10:44.649Z,13.03
2018-11-02T08:13:20.009Z,4.13
2018-11-02T08:15:55.809Z,3.77
2018-11-02T08:18:32.479Z,4.77
2018-11-02T08:21:08.636Z,17.00
2018-11-02T08:23:44.657Z,10.20
2018-11-02T08:26:20.766Z,5.30
2018-11-02T08:28:56.784Z,5.63
2018-11-02T08:31:32.357Z,7.50
2018-11-02T08:34:08.260Z,5.97
2018-11-02T08:36:44.858Z,6.67
2018-11-02T08:39:21.722Z,4.23
2018-11-02T08:41:57.788Z,4.03
2018-11-02T08:44:34.119Z,10.23
2018-11-02T08:47:09.921Z,6.90
2018-11-02T08:49:45.485Z,8.33
2018-11-02T08:52:21.150Z,4.63
2018-11-02T08:54:56.897Z,6.33
2018-11-02T08:57:32.918Z,4.17
2018-11-02T09:00:10.996Z,4.33
2018-11-02T09:02:47.580Z,5.03
2018-11-02T09:05:23.350Z,7.33
2018-11-02T09:07:59.505Z,5.30
2018-11-02T09:10:36.960Z,6.90
2018-11-02T09:13:12.532Z,3.50
2018-11-02T09:15:48.387Z,7.83
2018-11-02T09:18:24.273Z,3.27
2018-11-02T09:20:59.520Z,3.57
2018-11-02T09:23:35.248Z,8.87
2018-11-02T09:26:10.691Z,6.30
2018-11-02T09:28:46.427Z,15.67
2018-11-02T09:31:22.299Z,9.70
2018-11-02T09:33:57.939Z,3.83
2018-11-02T09:36:33.592Z,4.90
2018-11-02T09:39:11.404Z,3.00
2018-11-02T09:41:47.632Z,5.27
2018-11-02T09:44:23.441Z,9.83
2018-11-02T09:46:59.165Z,6.03
2018-11-02T09:49:34.414Z,7.30
2018-11-02T09:52:10.029Z,5.17
2018-11-02T09:54:45.714Z,5.70
2018-11-02T09:57:21.545Z,5.00
2018-11-02T09:59:57.841Z,4.40
2018-11-02T10:02:33.810Z,3.13
2018-11-02T10:05:10.321Z,6.77
2018-11-02T10:07:46.360Z,5.23
2018-11-02T10:10:22.232Z,5.73
2018-11-02T10:12:57.726Z,3.70
2018-11-02T10:15:33.361Z,10.17
2018-11-02T10:18:09.113Z,8.40
2018-11-02T10:20:44.765Z,5.17
2018-11-02T10:23:20.405Z,6.90
2018-11-02T10:25:56.309Z,12.43
2018-11-02T10:28:31.621Z,9.20
2018-11-02T10:31:07.280Z,7.47
2018-11-02T10:33:43.051Z,7.77
2018-11-02T10:36:19.054Z,5.80
2018-11-02T10:38:55.652Z,3.80
2018-11-02T10:41:32.513Z,7.17
2018-11-02T10:44:08.883Z,8.93
2018-11-02T10:46:44.917Z,11.10
2018-11-02T10:49:21.143Z,5.37
2018-11-02T10:51:56.866Z,7.40
2018-11-02T10:54:32.387Z,6.37
2018-11-02T10:57:08.067Z,4.87
2018-11-02T10:59:43.541Z,9.33
2018-11-02T11:02:28.434Z,3.30
2018-11-02T11:05:04.348Z,6.30
2018-11-02T11:07:39.833Z,6.07
2018-11-02T11:10:15.536Z,5.17
2018-11-02T11:12:51.264Z,5.97
2018-11-02T11:15:26.831Z,21.80
2018-11-02T11:18:02.685Z,8.73
2018-11-02T11:20:38.285Z,5.53
2018-11-02T11:23:13.923Z,7.57
2018-11-02T11:25:49.596Z,5.93
2018-11-02T11:28:25.123Z,4.50
2018-11-02T11:31:00.921Z,3.50
2018-11-02T11:33:36.590Z,4.13
2018-11-02T11:36:11.743Z,4.73
2018-11-02T11:38:47.397Z,6.40
2018-11-02T11:41:23.953Z,11.30
2018-11-02T11:44:00.185Z,3.30
2018-11-02T11:46:35.709Z,6.50
2018-11-02T11:49:11.625Z,8.73
2018-11-02T11:51:47.346Z,7.20
2018-11-02T11:54:22.647Z,3.37
2018-11-02T11:56:58.621Z,2.40
2018-11-02T11:59:33.809Z,2.30
2018-11-02T12:02:09.747Z,2.50
2018-11-02T12:04:45.256Z,4.00
2018-11-02T12:07:20.765Z,8.87
2018-11-02T12:09:57.765Z,3.90
2018-11-02T12:12:33.161Z,5.47
2018-11-02T12:15:10.965Z,4.10
2018-11-02T12:17:47.199Z,2.67
2018-11-02T12:20:27.523Z,4.80
2018-11-02T12:23:03.947Z,5.50
2018-11-02T12:25:40.022Z,3.73
2018-11-02T12:28:15.414Z,3.97
2018-11-02T12:30:51.285Z,4.33
2018-11-02T12:33:26.723Z,4.50
2018-11-02T12:36:02.589Z,11.07
2018-11-02T12:38:38.065Z,3.90
2018-11-02T12:41:20.368Z,3.43
2018-11-02T12:43:56.806Z,3.00
2018-11-02T12:46:32.370Z,5.20
2018-11-02T12:49:08.178Z,2.93
2018-11-02T12:51:43.503Z,4.50
2018-11-02T12:54:19.164Z,3.40
2018-11-02T12:56:54.858Z,4.93
2018-11-02T12:59:30.804Z,4.70
2018-11-02T13:02:06.341Z,4.63
2018-11-02T13:04:42.090Z,8.43
2018-11-02T13:07:17.956Z,4.20
2018-11-02T13:09:53.538Z,5.40
2018-11-02T13:12:29.259Z,5.57
2018-11-02T13:15:04.981Z,4.93
2018-11-02T13:17:42.146Z,4.67
2018-11-02T13:20:18.416Z,9.07
2018-11-02T13:22:53.887Z,7.83
2018-11-02T13:25:29.787Z,7.40
2018-11-02T13:28:05.085Z,3.40
2018-11-02T13:30:40.984Z,6.00
2018-11-02T13:33:16.726Z,3.90
2018-11-02T13:35:52.188Z,5.10
2018-11-02T13:38:28.019Z,3.20
2018-11-02T13:41:03.672Z,6.20
2018-11-02T13:43:39.945Z,5.43
2018-11-02T13:46:16.765Z,8.03
2018-11-02T13:48:52.637Z,5.67
2018-11-02T13:51:28.205Z,6.50
2018-11-02T13:54:04.068Z,5.60
2018-11-02T13:56:39.784Z,4.63
2018-11-02T13:59:15.387Z,11.00
2018-11-02T14:01:51.537Z,4.27
2018-11-02T14:04:28.487Z,6.37
2018-11-02T14:07:04.434Z,5.53
2018-11-02T14:09:39.946Z,4.90
2018-11-02T14:12:15.630Z,8.60
2018-11-02T14:14:51.173Z,5.10
2018-11-02T14:17:26.750Z,4.20
2018-11-02T14:20:02.523Z,3.10
2018-11-02T14:22:38.241Z,4.60
2018-11-02T14:25:15.791Z,8.53
2018-11-02T14:27:51.257Z,5.43
2018-11-02T14:30:27.143Z,5.13
2018-11-02T14:33:02.551Z,3.67
2018-11-02T14:35:38.674Z,3.67
2018-11-02T14:38:14.470Z,2.80
2018-11-02T14:40:50.024Z,2.83
2018-11-02T14:43:25.641Z,2.40
2018-11-02T14:46:01.441Z,2.40
2018-11-02T14:48:37.142Z,6.70
2018-11-02T14:51:12.628Z,7.90
2018-11-02T14:53:48.245Z,5.40
2018-11-02T14:56:23.926Z,5.80
2018-11-02T14:58:59.493Z,4.80
2018-11-02T15:01:34.940Z,10.50
2018-11-02T15:04:10.785Z,6.03
2018-11-02T15:06:46.547Z,5.27
2018-11-02T15:09:22.052Z,10.07
2018-11-02T15:11:57.731Z,4.77
2018-11-02T15:14:33.162Z,7.93
2018-11-02T15:17:09.089Z,6.50
2018-11-02T15:19:45.318Z,5.43
2018-11-02T15:22:21.426Z,4.80
2018-11-02T15:24:56.980Z,4.07
2018-11-02T15:27:32.874Z,3.47
2018-11-02T15:30:10.492Z,4.03
2018-11-02T15:32:46.428Z,4.00
2018-11-02T15:35:22.047Z,3.30
2018-11-02T15:37:57.564Z,5.87
2018-11-02T15:40:33.404Z,3.40
2018-11-02T15:43:09.016Z,4.00
2018-11-02T15:45:44.644Z,3.10
2018-11-02T15:48:20.238Z,7.80
2018-11-02T15:50:56.156Z,5.00
2018-11-02T15:53:31.696Z,24.23
2018-11-02T15:56:07.886Z,4.77
2018-11-02T15:58:43.515Z,3.20
2018-11-02T16:01:19.381Z,3.53
2018-11-02T16:03:54.675Z,6.13
2018-11-02T16:06:30.781Z,5.50
2018-11-02T16:09:10.301Z,2.93
2018-11-02T16:11:46.661Z,2.30
2018-11-02T16:14:22.005Z,5.27
2018-11-02T16:16:57.541Z,4.80
2018-11-02T16:19:33.425Z,12.10
2018-11-02T16:22:09.066Z,2.60
2018-11-02T16:24:44.729Z,6.17
2018-11-02T16:27:20.361Z,3.20
2018-11-02T16:29:56.100Z,4.60
2018-11-02T16:32:31.860Z,3.77
2018-11-02T16:35:08.408Z,6.60
2018-11-02T16:37:44.197Z,2.00
2018-11-02T16:40:19.922Z,21.23
2018-11-02T16:42:55.729Z,3.37
2018-11-02T16:45:31.145Z,4.70
2018-11-02T16:48:06.910Z,4.47
2018-11-02T16:50:42.513Z,5.80
2018-11-02T16:53:18.108Z,10.47
2018-11-02T16:55:53.609Z,6.10
2018-11-02T16:58:29.406Z,4.03
2018-11-02T17:01:05.066Z,7.63
2018-11-02T17:03:40.837Z,4.77
2018-11-02T17:06:16.576Z,5.40
2018-11-02T17:08:52.154Z,8.53
2018-11-02T17:11:27.892Z,9.23
2018-11-02T17:14:03.526Z,12.30
2018-11-02T17:16:39.369Z,10.20
2018-11-02T17:19:14.838Z,7.60
2018-11-02T17:21:50.883Z,6.53
2018-11-02T17:24:26.358Z,5.00
2018-11-02T17:27:02.195Z,5.60
2018-11-02T17:29:37.846Z,6.73
2018-11-02T17:32:13.235Z,7.50
2018-11-02T17:34:49.105Z,10.87
2018-11-02T17:37:24.615Z,10.70
2018-11-02T17:40:00.192Z,9.53
2018-11-02T17:42:35.655Z,8.53
2018-11-02T17:45:11.167Z,9.40
2018-11-02T17:47:47.020Z,7.63
2018-11-02T17:50:22.505Z,8.33
2018-11-02T17:52:58.253Z,21.80
2018-11-02T17:55:34.077Z,7.43
2018-11-02T17:58:09.633Z,13.53
2018-11-02T18:00:45.382Z,8.27
2018-11-02T18:03:21.135Z,10.70
2018-11-02T18:05:57.049Z,10.83
2018-11-02T18:08:32.414Z,9.83
2018-11-02T18:11:08.173Z,10.37
2018-11-02T18:13:43.836Z,10.27
2018-11-02T18:16:19.223Z,11.87
2018-11-02T18:18:55.215Z,9.23
2018-11-02T18:21:30.445Z,10.80
2018-11-02T18:24:06.843Z,9.60
2018-11-02T18:26:42.054Z,9.97
2018-11-02T18:29:17.758Z,8.43
2018-11-02T18:31:53.926Z,8.70
2018-11-02T18:34:29.041Z,6.67
2018-11-02T18:37:04.893Z,10.50
2018-11-02T18:39:40.355Z,9.90
2018-11-02T18:42:16.249Z,9.97
2018-11-02T18:44:51.912Z,11.60
2018-11-02T18:47:33.022Z,11.80
2018-11-02T18:50:09.328Z,11.87
2018-11-02T18:52:45.049Z,8.00
2018-11-02T18:55:20.891Z,14.67
2018-11-02T18:57:58.189Z,7.90
2018-11-02T19:00:33.788Z,9.97
2018-11-02T19:03:09.774Z,8.23
2018-11-02T19:05:45.258Z,6.30
2018-11-02T19:08:21.090Z,6.07
2018-11-02T19:10:56.761Z,9.83
2018-11-02T19:13:32.355Z,9.30
2018-11-02T19:16:08.045Z,12.20
2018-11-02T19:18:43.665Z,11.37
2018-11-02T19:21:19.195Z,9.00
2018-11-02T19:23:54.841Z,12.93
2018-11-02T19:26:30.662Z,19.53
2018-11-02T19:29:06.351Z,10.20
2018-11-02T19:31:41.786Z,8.00
2018-11-02T19:34:17.849Z,8.40
2018-11-02T19:36:53.437Z,12.73
2018-11-02T19:39:28.860Z,13.73
2018-11-02T19:42:04.628Z,14.60
2018-11-02T19:44:40.317Z,12.67
2018-11-02T19:47:16.249Z,9.70
2018-11-02T19:49:51.873Z,13.70
2018-11-02T19:52:27.539Z,10.03
2018-11-02T19:55:03.494Z,11.47
2018-11-02T19:57:38.710Z,11.37
2018-11-02T20:00:15.317Z,12.37
2018-11-02T20:02:51.360Z,10.50
2018-11-02T20:05:26.859Z,9.63
2018-11-02T20:08:02.393Z,12.07
2018-11-02T20:10:38.516Z,13.63
2018-11-02T20:13:14.180Z,17.23
2018-11-02T20:15:49.461Z,12.93
2018-11-02T20:18:26.295Z,12.97
2018-11-02T20:21:02.128Z,14.27
2018-11-02T20:23:38.006Z,10.70
2018-11-02T20:26:13.330Z,12.23
2018-11-02T20:28:49.099Z,15.47
2018-11-02T20:31:24.787Z,23.90
2018-11-02T20:34:00.393Z,17.87
2018-11-02T20:36:36.232Z,13.87
2018-11-02T20:39:12.091Z,13.17
2018-11-02T20:41:47.532Z,17.70
2018-11-02T20:44:23.251Z,18.30
2018-11-02T20:46:59.061Z,24.10
2018-11-02T20:49:34.729Z,20.63
2018-11-02T20:52:10.848Z,18.20
2018-11-02T20:54:47.233Z,19.60
2018-11-02T20:57:22.871Z,21.37
2018-11-02T20:59:58.188Z,25.30
2018-11-02T21:02:34.197Z,18.67
2018-11-02T21:05:11.755Z,28.13
2018-11-02T21:07:48.316Z,19.50
2018-11-02T21:10:24.461Z,22.83
2018-11-02T21:12:59.921Z,22.03
2018-11-02T21:15:35.567Z,23.43
2018-11-02T21:18:11.290Z,30.80
2018-11-02T21:20:46.935Z,24.10
2018-11-02T21:23:22.588Z,25.77
2018-11-02T21:25:58.401Z,24.70
2018-11-02T21:28:34.028Z,26.67
2018-11-02T21:31:09.684Z,27.60
2018-11-02T21:33:45.333Z,19.03
2018-11-02T21:36:20.683Z,19.23
2018-11-02T21:38:56.559Z,17.03
2018-11-02T21:41:32.026Z,17.70
2018-11-02T21:44:07.639Z,20.27
2018-11-02T21:46:43.518Z,20.47
2018-11-02T21:49:18.980Z,19.80
2018-11-02T21:51:54.637Z,21.60
2018-11-02T21:54:30.328Z,12.83
2018-11-02T21:57:06.319Z,16.00
2018-11-02T21:59:41.760Z,13.53
2018-11-02T22:02:17.413Z,12.90
2018-11-02T22:04:52.962Z,12.07
2018-11-02T22:07:28.494Z,14.57
2018-11-02T22:10:04.673Z,18.80
2018-11-02T22:12:40.174Z,15.63
2018-11-02T22:15:15.864Z,13.43
2018-11-02T22:17:51.624Z,12.20
2018-11-02T22:20:27.362Z,13.80
2018-11-02T22:23:03.257Z,13.30
2018-11-02T22:25:38.651Z,11.00
2018-11-02T22:28:14.309Z,11.40
2018-11-02T22:30:50.013Z,12.60
2018-11-02T22:33:25.800Z,17.07
2018-11-02T22:36:03.529Z,11.00
2018-11-02T22:38:39.161Z,13.37
2018-11-02T22:41:14.917Z,11.20
2018-11-02T22:43:50.408Z,14.90
2018-11-02T22:46:25.983Z,16.20
2018-11-02T22:49:01.751Z,8.63
2018-11-02T22:51:37.520Z,15.67
2018-11-02T22:54:13.196Z,13.33
2018-11-02T22:56:49.093Z,11.63
2018-11-02T22:59:25.376Z,11.10
2018-11-02T23:02:00.796Z,16.83
2018-11-02T23:04:36.676Z,13.10
2018-11-02T23:07:12.305Z,10.43
2018-11-02T23:09:47.961Z,13.20
2018-11-02T23:12:23.452Z,13.87
2018-11-02T23:14:59.104Z,14.83
2018-11-02T23:17:35.002Z,13.10
2018-11-02T23:20:12.875Z,27.40
2018-11-02T23:22:48.114Z,17.00
2018-11-02T23:25:24.121Z,18.40
2018-11-02T23:27:59.571Z,16.17
2018-11-02T23:30:35.708Z,19.40
2018-11-02T23:33:11.328Z,11.70
2018-11-02T23:35:46.980Z,15.87
2018-11-02T23:38:22.611Z,13.87
2018-11-02T23:40:58.433Z,12.07
2018-11-02T23:43:34.054Z,10.50
2018-11-02T23:46:09.743Z,21.87
2018-11-02T23:48:45.352Z,17.73
2018-11-02T23:51:21.018Z,11.37
2018-11-02T23:53:56.636Z,15.70
2018-11-02T23:56:32.169Z,15.23
2018-11-02T23:59:07.994Z,12.30
